Time;durP1;ratioP1;P1;durP2;ratioP2;P2;SDS_P1;SDS_P2;PMS_P1;PMS_P2;Temp;Humidity;BMP_temperature;BMP_pressure;BME280_temperature;BME280_humidity;BME280_pressure;Samples;Min_cycle;Max_cycle;Signal;HPM_P1;HPM_P2
2022/10/17 00:01:31;;;;;;;;;;;17.40;99.90;;;;;;5075621;28;20045;-68
2022/10/17 00:03:57;;;;;;;;;;;17.50;99.90;;;;;;5093628;28;19926;-68
2022/10/17 00:06:24;;;;;;;;;;;17.70;99.90;;;;;;5093672;28;20007;-68
2022/10/17 00:08:51;;;;;;;;;;;18.00;99.90;;;;;;5093980;28;20371;-68
2022/10/17 00:11:19;;;;;;;;;;;18.20;99.90;;;;;;5093859;28;19908;-68
2022/10/17 00:13:47;;;;;;;;;;;18.30;99.90;;;;;;5093487;28;19916;-68
2022/10/17 00:16:14;;;;;;;;;;;18.40;99.90;;;;;;5093737;28;19938;-68
2022/10/17 00:18:41;;;;;;;;;;;18.60;99.90;;;;;;5093539;28;19915;-68
2022/10/17 00:21:14;;;;;;;;;;;18.70;99.90;;;;;;5093700;28;20283;-69
2022/10/17 00:23:41;;;;;;;;;;;18.90;99.90;;;;;;5093255;28;20279;-66
2022/10/17 00:26:07;;;;;;;;;;;19.20;99.90;;;;;;5092980;28;19908;-68
2022/10/17 00:28:34;;;;;;;;;;;19.40;99.90;;;;;;5093580;28;20369;-68
2022/10/17 00:31:02;;;;;;;;;;;19.50;99.90;;;;;;5093766;28;19912;-67
2022/10/17 00:33:29;;;;;;;;;;;19.50;99.90;;;;;;5093511;28;19908;-67
2022/10/17 00:36:04;;;;;;;;;;;19.70;99.90;;;;;;5093534;28;19912;-68
2022/10/17 00:38:30;;;;;;;;;;;19.60;99.90;;;;;;5093018;28;19918;-68
2022/10/17 00:40:57;;;;;;;;;;;19.60;99.90;;;;;;5093219;28;19948;-68
2022/10/17 00:43:24;;;;;;;;;;;19.50;99.90;;;;;;5093172;28;20311;-68
2022/10/17 00:45:50;;;;;;;;;;;19.40;99.90;;;;;;5092849;28;20036;-67
2022/10/17 00:48:17;;;;;;;;;;;19.10;99.90;;;;;;5093074;28;19961;-68
2022/10/17 00:50:46;;;;;;;;;;;19.00;99.90;;;;;;5093686;28;19915;-68
2022/10/17 00:53:13;;;;;;;;;;;19.00;99.90;;;;;;5092590;28;19958;-67
2022/10/17 00:55:50;;;;;;;;;;;18.90;99.90;;;;;;5092723;28;19912;-68
2022/10/17 00:58:17;;;;;;;;;;;18.80;99.90;;;;;;5093125;28;19908;-67
2022/10/17 01:00:45;;;;;;;;;;;18.80;99.90;;;;;;5092461;28;20019;-67
2022/10/17 01:03:12;;;;;;;;;;;18.70;99.90;;;;;;5092027;28;20006;-67
2022/10/17 01:05:39;;;;;;;;;;;18.60;99.90;;;;;;5093178;28;19985;-67
2022/10/17 01:08:06;;;;;;;;;;;18.60;99.90;;;;;;5092988;28;19915;-67
2022/10/17 01:10:57;;;;;;;;;;;18.50;99.90;;;;;;5093183;28;19953;-68
2022/10/17 01:13:27;;;;;;;;;;;18.40;99.90;;;;;;5092582;28;19931;-67
2022/10/17 01:16:00;;;;;;;;;;;18.40;99.90;;;;;;5092780;28;19916;-68
2022/10/17 01:18:33;;;;;;;;;;;18.30;99.90;;;;;;5092705;28;19912;-68
2022/10/17 01:20:59;;;;;;;;;;;18.40;99.90;;;;;;5092322;28;20019;-67
2022/10/17 01:23:44;;;;;;;;;;;18.40;99.90;;;;;;5092128;28;19912;-67
2022/10/17 01:26:25;;;;;;;;;;;18.40;99.90;;;;;;5092788;28;20257;-68
2022/10/17 01:28:55;;;;;;;;;;;18.30;99.90;;;;;;5092514;28;19912;-67
2022/10/17 01:31:23;;;;;;;;;;;18.40;99.90;;;;;;5092589;28;19909;-67
2022/10/17 01:33:58;;;;;;;;;;;18.40;99.90;;;;;;5092584;28;19908;-68
2022/10/17 01:36:35;;;;;;;;;;;18.50;99.90;;;;;;5092152;28;20383;-67
2022/10/17 01:39:12;;;;;;;;;;;18.50;99.90;;;;;;5092379;28;20014;-68
2022/10/17 01:42:02;;;;;;;;;;;18.50;99.90;;;;;;5092271;28;20326;-68
2022/10/17 01:44:38;;;;;;;;;;;18.60;99.90;;;;;;5076900;28;19916;-67
2022/10/17 01:47:10;;;;;;;;;;;18.60;99.90;;;;;;5092352;28;19994;-67
2022/10/17 01:49:38;;;;;;;;;;;18.70;99.90;;;;;;5092228;28;19912;-68
2022/10/17 01:52:26;;;;;;;;;;;18.60;99.90;;;;;;5092514;28;20272;-67
2022/10/17 01:54:58;;;;;;;;;;;18.60;99.90;;;;;;5092205;28;20424;-68
2022/10/17 01:57:29;;;;;;;;;;;18.70;99.90;;;;;;5092316;28;20054;-68
2022/10/17 01:59:56;;;;;;;;;;;18.90;99.90;;;;;;5092069;28;19963;-67
2022/10/17 02:02:24;;;;;;;;;;;19.00;99.90;;;;;;5092270;28;19912;-68
2022/10/17 02:04:51;;;;;;;;;;;19.10;99.90;;;;;;5092607;28;19916;-67
2022/10/17 02:07:18;;;;;;;;;;;19.20;99.90;;;;;;5092272;28;19912;-68
2022/10/17 02:09:44;;;;;;;;;;;19.30;99.90;;;;;;5092432;28;20315;-66
2022/10/17 02:12:29;;;;;;;;;;;19.40;99.90;;;;;;5092596;28;19936;-67
2022/10/17 02:15:02;;;;;;;;;;;19.30;99.90;;;;;;5085674;28;19931;-67
2022/10/17 02:17:47;;;;;;;;;;;19.40;99.90;;;;;;5092459;28;19914;-69
2022/10/17 02:20:35;;;;;;;;;;;19.50;99.90;;;;;;5091850;28;19949;-68
2022/10/17 02:23:02;;;;;;;;;;;19.50;99.90;;;;;;5092154;28;19916;-67
2022/10/17 02:25:35;;;;;;;;;;;19.50;99.90;;;;;;5091973;28;19908;-68
2022/10/17 02:28:04;;;;;;;;;;;19.70;99.90;;;;;;5091721;28;19919;-68
2022/10/17 02:30:34;;;;;;;;;;;19.80;99.90;;;;;;5091575;28;19995;-68
2022/10/17 02:33:01;;;;;;;;;;;19.90;99.90;;;;;;5092002;28;19933;-68
2022/10/17 02:35:30;;;;;;;;;;;20.00;99.90;;;;;;5091691;28;19912;-68
2022/10/17 02:37:58;;;;;;;;;;;20.20;99.90;;;;;;5091907;28;19914;-68
2022/10/17 02:40:25;;;;;;;;;;;20.60;99.90;;;;;;5091961;28;19916;-68
2022/10/17 02:42:54;;;;;;;;;;;21.20;99.90;;;;;;5092055;28;19931;-68
2022/10/17 02:45:22;;;;;;;;;;;21.50;99.60;;;;;;5091857;28;20389;-67
2022/10/17 02:47:49;;;;;;;;;;;21.50;99.30;;;;;;5092330;28;19912;-68
2022/10/17 02:50:16;;;;;;;;;;;21.40;99.00;;;;;;5096022;28;20303;-68
2022/10/17 02:52:51;;;;;;;;;;;21.40;99.10;;;;;;5095649;28;19953;-68
2022/10/17 02:55:38;;;;;;;;;;;21.40;99.40;;;;;;5095401;28;19908;-67
2022/10/17 02:58:25;;;;;;;;;;;21.30;99.40;;;;;;5094911;28;19922;-68
2022/10/17 03:00:51;;;;;;;;;;;21.20;99.40;;;;;;5094799;28;20464;-68
2022/10/17 03:03:19;;;;;;;;;;;21.00;99.50;;;;;;5095403;28;19962;-68
2022/10/17 03:05:46;;;;;;;;;;;20.90;99.60;;;;;;5095286;28;19962;-68
2022/10/17 03:08:13;;;;;;;;;;;20.80;99.50;;;;;;5095442;28;19947;-69
2022/10/17 03:10:39;;;;;;;;;;;20.60;98.80;;;;;;5095233;28;19909;-68
2022/10/17 03:13:06;;;;;;;;;;;20.60;99.30;;;;;;5094638;28;19965;-69
2022/10/17 03:15:33;;;;;;;;;;;20.50;99.50;;;;;;5094559;28;19931;-67
2022/10/17 03:17:59;;;;;;;;;;;20.40;99.20;;;;;;5094729;28;20002;-67
2022/10/17 03:20:26;;;;;;;;;;;20.20;99.70;;;;;;5095021;28;20368;-67
2022/10/17 03:22:52;;;;;;;;;;;20.00;99.90;;;;;;5094960;28;19912;-67
2022/10/17 03:25:19;;;;;;;;;;;19.90;99.90;;;;;;5095039;28;19999;-68
2022/10/17 03:27:46;;;;;;;;;;;19.90;99.90;;;;;;5076284;28;20012;-67
2022/10/17 03:30:12;;;;;;;;;;;19.80;99.90;;;;;;5094818;28;20428;-67
2022/10/17 03:32:39;;;;;;;;;;;19.80;99.90;;;;;;5094583;28;19908;-67
2022/10/17 03:35:05;;;;;;;;;;;19.70;99.90;;;;;;5094694;28;19916;-67
2022/10/17 03:37:32;;;;;;;;;;;19.80;99.90;;;;;;5094693;28;20005;-67
2022/10/17 03:39:59;;;;;;;;;;;19.90;99.90;;;;;;5094401;28;19916;-68
2022/10/17 03:42:25;;;;;;;;;;;20.20;99.90;;;;;;5094553;28;19915;-67
2022/10/17 03:44:52;;;;;;;;;;;20.50;99.90;;;;;;5094293;28;19915;-68
2022/10/17 03:47:19;;;;;;;;;;;20.70;98.60;;;;;;5093849;28;19912;-67
2022/10/17 03:49:46;;;;;;;;;;;21.10;99.20;;;;;;5094471;28;19908;-67
2022/10/17 03:52:13;;;;;;;;;;;22.30;99.30;;;;;;5094404;28;19912;-67
2022/10/17 03:54:40;;;;;;;;;;;24.00;97.60;;;;;;5094146;28;19914;-67
2022/10/17 03:57:06;;;;;;;;;;;24.80;93.70;;;;;;5094001;28;19978;-68
2022/10/17 03:59:33;;;;;;;;;;;24.60;92.80;;;;;;5093208;28;19956;-67
2022/10/17 04:02:00;;;;;;;;;;;24.30;92.80;;;;;;5093916;28;19916;-68
2022/10/17 04:04:27;;;;;;;;;;;23.90;93.40;;;;;;5093714;28;19960;-67
2022/10/17 04:06:53;;;;;;;;;;;23.20;93.70;;;;;;5093823;28;19916;-70
2022/10/17 04:09:20;;;;;;;;;;;22.70;94.50;;;;;;5093923;28;20410;-68
2022/10/17 04:11:46;;;;;;;;;;;22.30;95.30;;;;;;5094086;28;19915;-68
2022/10/17 04:14:13;;;;;;;;;;;22.00;96.20;;;;;;5093489;28;19927;-68
2022/10/17 04:16:40;;;;;;;;;;;21.80;96.50;;;;;;5092357;28;19927;-67
2022/10/17 04:19:06;;;;;;;;;;;21.50;97.00;;;;;;5092705;28;19958;-67
2022/10/17 04:21:33;;;;;;;;;;;21.30;96.90;;;;;;5091936;28;19931;-68
2022/10/17 04:24:00;;;;;;;;;;;21.20;97.00;;;;;;5093102;28;19912;-67
2022/10/17 04:26:26;;;;;;;;;;;20.90;97.30;;;;;;5092753;28;19908;-68
2022/10/17 04:28:53;;;;;;;;;;;20.80;98.00;;;;;;5093346;28;19916;-68
2022/10/17 04:31:20;;;;;;;;;;;20.70;97.60;;;;;;5093497;28;19915;-67
2022/10/17 04:33:47;;;;;;;;;;;20.70;97.40;;;;;;5092944;28;19938;-68
2022/10/17 04:36:16;;;;;;;;;;;20.80;97.10;;;;;;5093469;28;19912;-67
2022/10/17 04:38:43;;;;;;;;;;;20.50;98.00;;;;;;5083887;28;19912;-71
2022/10/17 04:41:11;;;;;;;;;;;20.50;98.20;;;;;;5082046;28;20003;-67
2022/10/17 04:43:38;;;;;;;;;;;20.70;97.70;;;;;;5066032;28;19908;-68
2022/10/17 04:46:06;;;;;;;;;;;20.70;97.90;;;;;;5080965;28;20360;-68
2022/10/17 04:48:32;;;;;;;;;;;20.60;97.30;;;;;;5081505;28;19939;-67
2022/10/17 04:51:03;;;;;;;;;;;20.50;97.30;;;;;;5089696;28;19908;-68
2022/10/17 04:53:34;;;;;;;;;;;20.30;97.70;;;;;;5083679;28;20007;-68
2022/10/17 04:56:01;;;;;;;;;;;20.20;97.80;;;;;;5081904;28;20072;-69
2022/10/17 04:58:28;;;;;;;;;;;20.00;97.40;;;;;;5091424;28;19908;-67
2022/10/17 05:00:55;;;;;;;;;;;19.90;97.60;;;;;;5091471;28;19923;-67
2022/10/17 05:03:22;;;;;;;;;;;19.80;97.60;;;;;;5084755;28;19935;-68
2022/10/17 05:05:48;;;;;;;;;;;19.70;97.70;;;;;;5080071;28;19908;-67
2022/10/17 05:08:15;;;;;;;;;;;19.80;98.00;;;;;;5080181;28;19915;-67
2022/10/17 05:10:45;;;;;;;;;;;19.80;97.90;;;;;;5081265;28;19915;-68
2022/10/17 05:13:12;;;;;;;;;;;19.90;98.10;;;;;;5080883;28;20011;-67
2022/10/17 05:15:39;;;;;;;;;;;20.00;97.90;;;;;;5082359;28;20323;-68
2022/10/17 05:18:06;;;;;;;;;;;20.10;97.40;;;;;;5080372;28;19952;-68
2022/10/17 05:20:33;;;;;;;;;;;20.10;97.50;;;;;;5082058;28;19923;-67
2022/10/17 05:23:00;;;;;;;;;;;20.00;97.70;;;;;;5083120;28;20296;-67
2022/10/17 05:25:26;;;;;;;;;;;20.00;97.80;;;;;;5080994;28;19912;-67
2022/10/17 05:27:53;;;;;;;;;;;20.30;98.60;;;;;;5081240;28;20372;-68
2022/10/17 05:30:20;;;;;;;;;;;21.00;97.20;;;;;;5080366;28;19912;-68
2022/10/17 05:32:46;;;;;;;;;;;21.70;95.90;;;;;;5084170;28;19913;-69
2022/10/17 05:35:13;;;;;;;;;;;22.30;94.80;;;;;;5079069;28;19913;-69
2022/10/17 05:37:39;;;;;;;;;;;22.50;94.60;;;;;;5061669;28;19961;-68
2022/10/17 05:40:06;;;;;;;;;;;22.70;93.90;;;;;;5079538;28;19916;-68
2022/10/17 05:42:33;;;;;;;;;;;22.60;93.90;;;;;;5081594;28;19916;-68
2022/10/17 05:45:00;;;;;;;;;;;22.60;93.50;;;;;;5080771;28;19957;-69
2022/10/17 05:47:26;;;;;;;;;;;22.70;93.30;;;;;;5079319;28;19970;-69
2022/10/17 05:49:53;;;;;;;;;;;23.00;93.10;;;;;;5084020;28;19916;-69
2022/10/17 05:52:19;;;;;;;;;;;23.70;93.50;;;;;;5082487;28;20253;-68
2022/10/17 05:54:46;;;;;;;;;;;24.60;91.70;;;;;;5079191;28;19916;-74
2022/10/17 05:57:13;;;;;;;;;;;25.50;90.20;;;;;;5077708;28;20280;-68
2022/10/17 05:59:39;;;;;;;;;;;25.80;88.20;;;;;;5091277;28;20330;-68
2022/10/17 06:02:06;;;;;;;;;;;25.90;87.60;;;;;;5091204;28;19938;-68
2022/10/17 06:04:32;;;;;;;;;;;25.80;86.30;;;;;;5091609;28;19912;-69
2022/10/17 06:06:59;;;;;;;;;;;25.80;86.70;;;;;;5080584;28;19960;-70
2022/10/17 06:09:26;;;;;;;;;;;26.10;85.40;;;;;;5086797;28;19908;-69
2022/10/17 06:11:52;;;;;;;;;;;25.90;85.80;;;;;;5086936;28;19956;-69
2022/10/17 06:14:19;;;;;;;;;;;26.40;83.80;;;;;;5087101;28;19916;-68
2022/10/17 06:16:45;;;;;;;;;;;27.00;85.20;;;;;;5084967;28;20296;-68
2022/10/17 06:19:12;;;;;;;;;;;26.40;83.60;;;;;;5090776;28;19916;-69
2022/10/17 06:21:39;;;;;;;;;;;25.80;84.60;;;;;;5090903;28;19912;-68
2022/10/17 06:24:06;;;;;;;;;;;25.30;85.60;;;;;;5093649;28;19915;-68
2022/10/17 06:26:33;;;;;;;;;;;25.20;87.80;;;;;;5076353;28;20288;-69
2022/10/17 06:28:59;;;;;;;;;;;25.30;86.40;;;;;;5094631;28;19958;-68
2022/10/17 06:31:26;;;;;;;;;;;25.10;86.30;;;;;;5094857;28;19913;-69
2022/10/17 06:33:52;;;;;;;;;;;24.80;87.00;;;;;;5094735;28;20000;-68
2022/10/17 06:36:19;;;;;;;;;;;24.50;87.30;;;;;;5095143;28;20368;-67
2022/10/17 06:38:46;;;;;;;;;;;24.00;90.10;;;;;;5094320;28;19912;-66
2022/10/17 06:41:14;;;;;;;;;;;23.80;90.20;;;;;;5090678;28;19920;-68
2022/10/17 06:43:47;;;;;;;;;;;23.60;90.10;;;;;;5094326;28;19931;-68
2022/10/17 06:46:15;;;;;;;;;;;23.10;90.60;;;;;;5093017;28;19916;-68
2022/10/17 06:48:42;;;;;;;;;;;22.50;91.30;;;;;;5088001;28;19961;-68
2022/10/17 06:51:10;;;;;;;;;;;22.20;92.30;;;;;;5095256;28;20314;-67
2022/10/17 06:53:37;;;;;;;;;;;22.00;92.60;;;;;;5094969;28;19915;-67
2022/10/17 06:56:05;;;;;;;;;;;21.40;93.10;;;;;;5092448;28;19908;-67
2022/10/17 06:58:33;;;;;;;;;;;21.10;93.50;;;;;;5093834;28;19951;-67
2022/10/17 07:01:00;;;;;;;;;;;20.60;94.00;;;;;;5094710;28;19965;-67
2022/10/17 07:03:27;;;;;;;;;;;20.30;94.50;;;;;;5094431;28;19915;-67
2022/10/17 07:05:55;;;;;;;;;;;20.00;94.90;;;;;;5094085;28;19916;-67
2022/10/17 07:08:21;;;;;;;;;;;19.80;95.30;;;;;;5094208;28;19912;-68
2022/10/17 07:10:48;;;;;;;;;;;19.60;96.10;;;;;;5094650;28;19962;-67
2022/10/17 07:13:15;;;;;;;;;;;19.40;96.30;;;;;;5094171;28;20431;-68
2022/10/17 07:15:42;;;;;;;;;;;19.20;96.90;;;;;;5093772;28;19923;-67
2022/10/17 07:18:09;;;;;;;;;;;19.20;97.20;;;;;;5093737;28;19918;-67
2022/10/17 07:20:35;;;;;;;;;;;19.20;97.30;;;;;;5094084;28;20313;-67
2022/10/17 07:23:02;;;;;;;;;;;19.10;97.30;;;;;;5093482;28;19916;-68
2022/10/17 07:25:29;;;;;;;;;;;19.00;97.00;;;;;;5093852;28;19908;-67
2022/10/17 07:27:56;;;;;;;;;;;19.10;97.20;;;;;;5091440;28;19965;-68
2022/10/17 07:30:23;;;;;;;;;;;18.90;97.70;;;;;;5094141;28;20406;-69
2022/10/17 07:32:53;;;;;;;;;;;18.90;97.70;;;;;;5094021;28;20015;-69
2022/10/17 07:35:20;;;;;;;;;;;18.80;98.00;;;;;;5092593;28;19908;-69
2022/10/17 07:37:46;;;;;;;;;;;18.80;98.20;;;;;;5092507;28;19996;-68
2022/10/17 07:40:13;;;;;;;;;;;18.70;98.20;;;;;;5093522;28;19959;-69
2022/10/17 07:42:40;;;;;;;;;;;18.70;98.50;;;;;;5093774;28;19969;-68
2022/10/17 07:45:07;;;;;;;;;;;18.60;98.80;;;;;;5093731;28;19908;-69
2022/10/17 07:47:36;;;;;;;;;;;18.60;98.90;;;;;;5093054;28;19916;-69
2022/10/17 07:50:04;;;;;;;;;;;18.50;99.00;;;;;;5093244;28;19912;-69
2022/10/17 07:52:31;;;;;;;;;;;18.30;99.50;;;;;;5093640;28;20376;-69
2022/10/17 07:54:57;;;;;;;;;;;18.30;99.40;;;;;;5093537;28;19912;-68
2022/10/17 07:57:24;;;;;;;;;;;18.20;99.60;;;;;;5092720;28;20372;-69
2022/10/17 07:59:50;;;;;;;;;;;18.10;99.90;;;;;;5093454;28;20014;-69
2022/10/17 08:02:22;;;;;;;;;;;18.10;99.90;;;;;;5092873;28;20353;-67
2022/10/17 08:04:49;;;;;;;;;;;18.10;99.90;;;;;;5092991;28;20578;-67
2022/10/17 08:07:16;;;;;;;;;;;18.00;99.90;;;;;;5091700;28;20015;-67
2022/10/17 08:09:43;;;;;;;;;;;18.00;99.90;;;;;;5089266;28;19912;-68
2022/10/17 08:12:10;;;;;;;;;;;17.90;99.90;;;;;;5090786;28;20257;-68
2022/10/17 08:14:38;;;;;;;;;;;17.90;99.90;;;;;;5092903;28;19920;-67
2022/10/17 08:17:04;;;;;;;;;;;17.80;99.90;;;;;;5074075;28;19912;-67
2022/10/17 08:19:31;;;;;;;;;;;17.80;99.90;;;;;;5092270;28;19920;-68
2022/10/17 08:21:58;;;;;;;;;;;17.70;99.90;;;;;;5092761;28;19916;-68
2022/10/17 08:24:24;;;;;;;;;;;17.60;99.90;;;;;;5092903;28;20307;-68
2022/10/17 08:26:52;;;;;;;;;;;17.60;99.90;;;;;;5091299;28;19962;-68
2022/10/17 08:29:18;;;;;;;;;;;17.50;99.90;;;;;;5093424;28;19909;-68
2022/10/17 08:31:45;;;;;;;;;;;17.50;99.90;;;;;;5093299;28;19931;-68
2022/10/17 08:34:12;;;;;;;;;;;17.50;99.90;;;;;;5093118;28;19915;-66
2022/10/17 08:36:38;;;;;;;;;;;17.40;99.90;;;;;;5075158;28;19915;-68
2022/10/17 08:39:05;;;;;;;;;;;17.30;99.90;;;;;;5086481;28;19916;-67
2022/10/17 08:41:41;;;;;;;;;;;17.20;99.90;;;;;;5070066;28;20301;-68
2022/10/17 08:44:25;;;;;;;;;;;17.20;99.90;;;;;;5092063;28;19908;-68
2022/10/17 08:46:55;;;;;;;;;;;17.20;99.90;;;;;;5091464;28;19912;-67
2022/10/17 08:49:25;;;;;;;;;;;17.10;99.90;;;;;;5091767;28;19914;-67
2022/10/17 08:51:58;;;;;;;;;;;17.10;99.90;;;;;;5092261;28;20323;-68
2022/10/17 08:54:30;;;;;;;;;;;17.00;99.90;;;;;;5091142;28;19919;-67
2022/10/17 08:56:57;;;;;;;;;;;17.00;99.90;;;;;;5092289;28;19919;-67
2022/10/17 08:59:28;;;;;;;;;;;17.10;99.90;;;;;;5092699;28;20360;-67
2022/10/17 09:02:12;;;;;;;;;;;17.10;99.90;;;;;;5092975;28;20010;-67
2022/10/17 09:04:48;;;;;;;;;;;17.10;99.90;;;;;;5092888;28;19908;-66
2022/10/17 09:07:52;;;;;;;;;;;17.20;99.90;;;;;;5087137;28;19912;-67
2022/10/17 09:10:44;;;;;;;;;;;17.20;99.90;;;;;;5048328;28;19982;-67
2022/10/17 09:13:22;;;;;;;;;;;17.30;99.90;;;;;;5032678;28;19912;-67
2022/10/17 09:16:07;;;;;;;;;;;17.40;99.90;;;;;;5078560;28;19920;-68
2022/10/17 09:18:57;;;;;;;;;;;17.40;99.90;;;;;;5087443;28;19998;-67
2022/10/17 09:21:23;;;;;;;;;;;17.40;99.90;;;;;;5088940;28;19920;-68
2022/10/17 09:23:52;;;;;;;;;;;17.50;99.90;;;;;;5090672;28;20004;-68
2022/10/17 09:26:18;;;;;;;;;;;17.50;99.90;;;;;;5091337;28;20368;-69
2022/10/17 09:28:50;;;;;;;;;;;17.50;99.90;;;;;;5091885;28;20351;-66
2022/10/17 09:31:17;;;;;;;;;;;17.50;99.90;;;;;;5091908;28;19912;-67
2022/10/17 09:33:47;;;;;;;;;;;17.60;99.90;;;;;;5091643;28;20327;-67
2022/10/17 09:36:19;;;;;;;;;;;17.60;99.90;;;;;;5091969;28;20265;-67
2022/10/17 09:38:51;;;;;;;;;;;17.60;99.90;;;;;;5091860;28;19908;-68
2022/10/17 09:41:20;;;;;;;;;;;17.60;99.90;;;;;;5092029;28;20253;-67
2022/10/17 09:43:46;;;;;;;;;;;17.60;99.90;;;;;;5088534;28;20280;-67
2022/10/17 09:46:24;;;;;;;;;;;17.50;99.90;;;;;;5091235;28;19984;-67
2022/10/17 09:48:57;;;;;;;;;;;17.50;99.90;;;;;;5091256;28;20372;-66
2022/10/17 09:51:24;;;;;;;;;;;17.50;99.90;;;;;;5091219;28;19912;-67
2022/10/17 09:53:56;;;;;;;;;;;17.50;99.90;;;;;;5090992;28;19919;-67
2022/10/17 09:56:22;;;;;;;;;;;17.60;99.90;;;;;;5090167;28;19908;-67
2022/10/17 09:58:52;;;;;;;;;;;17.60;99.90;;;;;;5093853;28;19908;-67
2022/10/17 10:01:20;;;;;;;;;;;17.60;99.90;;;;;;5094842;28;19920;-67
2022/10/17 10:03:48;;;;;;;;;;;17.60;99.90;;;;;;5094717;28;20380;-68
2022/10/17 10:06:16;;;;;;;;;;;17.60;99.90;;;;;;5095600;28;19987;-67
2022/10/17 10:08:53;;;;;;;;;;;17.60;99.90;;;;;;5094637;28;19912;-67
2022/10/17 10:11:24;;;;;;;;;;;17.60;99.90;;;;;;5095065;28;19912;-67
2022/10/17 10:13:51;;;;;;;;;;;17.70;99.90;;;;;;5094657;28;20006;-67
2022/10/17 10:16:31;;;;;;;;;;;17.70;99.90;;;;;;5077494;28;19912;-67
2022/10/17 10:18:58;;;;;;;;;;;17.70;99.90;;;;;;5095077;28;20011;-66
2022/10/17 10:21:27;;;;;;;;;;;17.70;99.90;;;;;;5095191;28;19919;-67
2022/10/17 10:24:09;;;;;;;;;;;17.60;99.90;;;;;;5091541;28;19916;-67
2022/10/17 10:26:40;;;;;;;;;;;17.50;99.90;;;;;;5093478;28;19908;-67
2022/10/17 10:29:24;;;;;;;;;;;17.40;99.90;;;;;;5095009;28;19908;-67
2022/10/17 10:31:52;;;;;;;;;;;17.40;99.90;;;;;;5095689;28;19908;-67
2022/10/17 10:34:25;;;;;;;;;;;17.40;99.90;;;;;;5095280;28;19919;-67
2022/10/17 10:36:55;;;;;;;;;;;17.30;99.90;;;;;;5095912;28;19915;-68
2022/10/17 10:39:30;;;;;;;;;;;17.30;99.90;;;;;;5095715;28;19912;-68
2022/10/17 10:41:57;;;;;;;;;;;17.30;99.90;;;;;;5095082;28;19912;-67
2022/10/17 10:44:25;;;;;;;;;;;17.20;99.90;;;;;;5094548;28;19952;-68
2022/10/17 10:47:10;;;;;;;;;;;17.20;99.90;;;;;;5095255;28;19912;-67
2022/10/17 10:49:37;;;;;;;;;;;17.10;99.90;;;;;;5094980;28;19999;-67
2022/10/17 10:52:05;;;;;;;;;;;17.10;99.90;;;;;;5094833;28;19908;-67
2022/10/17 10:54:43;;;;;;;;;;;17.10;99.90;;;;;;5095096;28;20009;-68
2022/10/17 10:57:12;;;;;;;;;;;17.00;99.90;;;;;;5095413;28;19908;-67
2022/10/17 10:59:55;;;;;;;;;;;17.00;99.90;;;;;;5095137;28;19993;-67
2022/10/17 11:02:24;;;;;;;;;;;17.10;99.90;;;;;;5094715;28;20018;-66
2022/10/17 11:04:54;;;;;;;;;;;17.00;99.90;;;;;;5094872;28;19932;-67
2022/10/17 11:07:31;;;;;;;;;;;16.90;99.90;;;;;;5095003;28;20373;-67
2022/10/17 11:10:15;;;;;;;;;;;17.00;99.90;;;;;;5094791;28;19912;-68
2022/10/17 11:12:48;;;;;;;;;;;17.00;99.90;;;;;;5094501;28;19956;-66
2022/10/17 11:15:27;;;;;;;;;;;17.00;99.90;;;;;;5094477;28;19927;-66
2022/10/17 11:17:57;;;;;;;;;;;17.10;99.90;;;;;;5094876;28;19912;-67
2022/10/17 11:20:26;;;;;;;;;;;17.00;99.90;;;;;;5094715;28;19924;-68
2022/10/17 11:23:00;;;;;;;;;;;17.10;99.90;;;;;;5094650;28;20364;-68
2022/10/17 11:25:37;;;;;;;;;;;17.00;99.90;;;;;;5094150;28;20284;-69
2022/10/17 11:28:11;;;;;;;;;;;16.90;99.90;;;;;;5094365;28;19915;-68
2022/10/17 11:30:44;;;;;;;;;;;16.90;99.90;;;;;;5094399;28;19908;-68
2022/10/17 11:33:12;;;;;;;;;;;16.70;99.90;;;;;;5093970;28;19912;-68
2022/10/17 11:35:41;;;;;;;;;;;16.80;99.90;;;;;;5076054;28;19908;-68
2022/10/17 11:38:08;;;;;;;;;;;16.80;99.90;;;;;;5094466;28;19976;-67
2022/10/17 11:40:36;;;;;;;;;;;16.70;99.90;;;;;;5094502;28;19916;-69
2022/10/17 11:43:14;;;;;;;;;;;16.70;99.90;;;;;;5094407;28;20395;-67
2022/10/17 11:45:49;;;;;;;;;;;16.70;99.90;;;;;;5094378;28;19949;-68
2022/10/17 11:48:19;;;;;;;;;;;16.60;99.90;;;;;;5094340;28;19969;-68
2022/10/17 11:50:56;;;;;;;;;;;16.60;99.90;;;;;;5094244;28;19912;-68
2022/10/17 11:53:25;;;;;;;;;;;16.70;99.90;;;;;;5093491;28;19912;-68
2022/10/17 11:55:52;;;;;;;;;;;16.70;99.90;;;;;;5094104;28;19908;-68
2022/10/17 11:58:31;;;;;;;;;;;16.70;99.90;;;;;;5093977;28;20249;-67
2022/10/17 12:01:03;;;;;;;;;;;16.70;99.90;;;;;;5093720;28;20007;-68
2022/10/17 12:03:42;;;;;;;;;;;16.70;99.90;;;;;;5093549;28;19961;-68
2022/10/17 12:06:09;;;;;;;;;;;16.70;99.90;;;;;;5093792;28;19915;-68
2022/10/17 12:08:57;;;;;;;;;;;16.70;99.90;;;;;;5093830;28;19909;-67
2022/10/17 12:11:27;;;;;;;;;;;16.70;99.90;;;;;;5093726;28;19920;-68
2022/10/17 12:13:55;;;;;;;;;;;16.60;99.90;;;;;;5093538;28;19931;-68
2022/10/17 12:16:22;;;;;;;;;;;16.60;99.90;;;;;;5094015;28;19912;-67
2022/10/17 12:18:51;;;;;;;;;;;16.70;99.90;;;;;;5093772;28;19908;-68
2022/10/17 12:21:18;;;;;;;;;;;16.60;99.90;;;;;;5093497;28;20015;-68
2022/10/17 12:23:54;;;;;;;;;;;16.60;99.90;;;;;;5093621;28;19912;-68
2022/10/17 12:26:28;;;;;;;;;;;16.60;99.90;;;;;;5093764;28;20011;-68
2022/10/17 12:28:56;;;;;;;;;;;16.60;99.90;;;;;;5093543;28;19961;-67
2022/10/17 12:31:26;;;;;;;;;;;16.60;99.90;;;;;;5093547;28;20583;-68
2022/10/17 12:33:53;;;;;;;;;;;16.60;99.90;;;;;;5092921;28;19951;-68
2022/10/17 12:36:22;;;;;;;;;;;16.60;99.90;;;;;;5093643;28;19995;-68
2022/10/17 12:39:12;;;;;;;;;;;16.60;99.90;;;;;;5093689;28;19961;-68
2022/10/17 12:41:39;;;;;;;;;;;16.60;99.90;;;;;;5072698;28;19916;-69
2022/10/17 12:44:14;;;;;;;;;;;16.60;99.90;;;;;;5093047;28;19920;-68
2022/10/17 12:46:44;;;;;;;;;;;16.50;99.90;;;;;;5093395;28;19919;-68
2022/10/17 12:49:35;;;;;;;;;;;16.50;99.90;;;;;;5093219;28;19947;-68
2022/10/17 12:52:10;;;;;;;;;;;16.60;99.90;;;;;;5093333;28;20288;-68
2022/10/17 12:54:41;;;;;;;;;;;16.50;99.90;;;;;;5093197;28;19935;-68
2022/10/17 12:57:22;;;;;;;;;;;16.60;99.90;;;;;;5093144;28;20014;-68
2022/10/17 12:59:48;;;;;;;;;;;16.60;99.90;;;;;;5093238;28;20432;-67
2022/10/17 13:02:18;;;;;;;;;;;16.50;99.90;;;;;;5093101;28;20401;-68
2022/10/17 13:04:45;;;;;;;;;;;16.50;99.90;;;;;;5091974;28;19912;-68
2022/10/17 13:07:17;;;;;;;;;;;16.50;99.90;;;;;;5092921;28;19908;-68
2022/10/17 13:09:44;;;;;;;;;;;16.40;99.90;;;;;;5092931;28;20285;-69
2022/10/17 13:12:13;;;;;;;;;;;16.10;99.90;;;;;;5092919;28;19955;-69
2022/10/17 13:14:41;;;;;;;;;;;16.20;99.90;;;;;;5092409;28;19973;-68
2022/10/17 13:17:29;;;;;;;;;;;16.10;99.90;;;;;;5092443;28;19935;-68
2022/10/17 13:19:56;;;;;;;;;;;16.10;99.90;;;;;;5092475;28;20288;-68
2022/10/17 13:22:24;;;;;;;;;;;16.00;99.90;;;;;;5092796;28;19915;-68
2022/10/17 13:24:52;;;;;;;;;;;15.90;99.90;;;;;;5092346;28;19912;-68
2022/10/17 13:27:22;;;;;;;;;;;15.90;99.90;;;;;;5092989;28;19909;-68
2022/10/17 13:29:48;;;;;;;;;;;15.90;99.90;;;;;;5092873;28;19908;-68
2022/10/17 13:32:15;;;;;;;;;;;15.90;99.90;;;;;;5091780;28;19915;-68
2022/10/17 13:34:42;;;;;;;;;;;15.80;99.90;;;;;;5091973;28;19914;-68
2022/10/17 13:37:11;;;;;;;;;;;15.80;99.90;;;;;;5092399;28;19916;-68
2022/10/17 13:39:42;;;;;;;;;;;15.70;99.90;;;;;;5092537;28;19924;-67
2022/10/17 13:42:23;;;;;;;;;;;15.70;99.90;;;;;;5091998;28;20288;-69
2022/10/17 13:44:49;;;;;;;;;;;15.60;99.90;;;;;;5072236;28;19916;-68
2022/10/17 13:47:23;;;;;;;;;;;15.60;99.90;;;;;;5072533;28;19909;-69
2022/10/17 13:49:51;;;;;;;;;;;15.60;99.90;;;;;;5072560;28;19950;-68
2022/10/17 13:52:18;;;;;;;;;;;15.50;99.90;;;;;;5086489;28;20340;-68
2022/10/17 13:54:47;;;;;;;;;;;15.50;99.90;;;;;;5091974;28;19908;-68
2022/10/17 13:57:24;;;;;;;;;;;15.50;99.90;;;;;;5092877;28;20004;-68
2022/10/17 13:59:54;;;;;;;;;;;15.40;99.90;;;;;;5092647;28;20344;-68
2022/10/17 14:02:28;;;;;;;;;;;15.30;99.90;;;;;;5091701;28;20383;-68
2022/10/17 14:05:09;;;;;;;;;;;15.30;99.90;;;;;;5091703;28;19914;-68
2022/10/17 14:07:39;;;;;;;;;;;15.20;99.90;;;;;;5092196;28;20348;-68
2022/10/17 14:10:17;;;;;;;;;;;15.20;99.90;;;;;;5092264;28;19999;-68
2022/10/17 14:12:44;;;;;;;;;;;15.20;99.90;;;;;;5092047;28;19912;-68
2022/10/17 14:15:13;;;;;;;;;;;15.20;99.90;;;;;;5092045;28;20024;-68
2022/10/17 14:17:40;;;;;;;;;;;15.10;99.90;;;;;;5092011;28;19915;-68
2022/10/17 14:20:08;;;;;;;;;;;15.10;99.90;;;;;;5091928;28;20360;-68
2022/10/17 14:22:35;;;;;;;;;;;15.10;99.90;;;;;;5091424;28;19920;-68
2022/10/17 14:25:03;;;;;;;;;;;15.00;99.90;;;;;;5091559;28;19912;-68
2022/10/17 14:27:33;;;;;;;;;;;14.90;99.90;;;;;;5092192;28;19908;-68
2022/10/17 14:30:02;;;;;;;;;;;15.00;99.90;;;;;;5073896;28;19934;-69
2022/10/17 14:32:31;;;;;;;;;;;14.90;99.90;;;;;;5091977;28;19954;-68